createdAt,value
2018-07-01T00:00:37.746Z,966.07
2018-07-01T00:01:37.777Z,966.06
2018-07-01T00:02:37.751Z,966.07
2018-07-01T00:03:37.757Z,966.06
2018-07-01T00:04:37.736Z,966.10
2018-07-01T00:05:37.726Z,966.10
2018-07-01T00:06:37.740Z,966.08
2018-07-01T00:07:37.709Z,966.11
2018-07-01T00:08:37.802Z,966.07
2018-07-01T00:09:37.715Z,966.12
2018-07-01T00:10:37.759Z,966.11
2018-07-01T00:11:37.703Z,966.12
2018-07-01T00:12:37.708Z,966.12
2018-07-01T00:13:37.710Z,966.11
2018-07-01T00:14:37.704Z,966.11
2018-07-01T00:15:37.736Z,966.10
2018-07-01T00:16:37.733Z,966.11
2018-07-01T00:17:37.769Z,966.14
2018-07-01T00:18:37.752Z,966.15
2018-07-01T00:19:37.729Z,966.14
2018-07-01T00:20:37.794Z,966.15
2018-07-01T00:21:37.750Z,966.16
2018-07-01T00:22:37.718Z,966.14
2018-07-01T00:23:37.735Z,966.10
2018-07-01T00:24:37.808Z,966.10
2018-07-01T00:25:37.737Z,966.04
2018-07-01T00:26:37.758Z,966.13
2018-07-01T00:27:37.715Z,966.10
2018-07-01T00:28:37.735Z,966.14
2018-07-01T00:29:37.759Z,966.12
2018-07-01T00:30:37.711Z,966.17
2018-07-01T00:31:37.714Z,966.10
2018-07-01T00:32:37.744Z,966.16
2018-07-01T00:33:37.724Z,966.14
2018-07-01T00:34:40.334Z,966.15
2018-07-01T00:35:37.759Z,966.12
2018-07-01T00:36:37.749Z,966.11
2018-07-01T00:37:37.735Z,966.16
2018-07-01T00:38:37.727Z,966.12
2018-07-01T00:39:37.757Z,966.11
2018-07-01T00:40:37.738Z,966.10
2018-07-01T00:41:37.761Z,966.08
2018-07-01T00:42:37.712Z,966.11
2018-07-01T00:43:37.699Z,966.10
2018-07-01T00:44:37.750Z,966.09
2018-07-01T00:45:37.719Z,966.10
2018-07-01T00:46:37.720Z,966.08
2018-07-01T00:47:37.708Z,966.08
2018-07-01T00:48:37.763Z,966.06
2018-07-01T00:49:37.728Z,966.06
2018-07-01T00:50:37.729Z,966.05
2018-07-01T00:51:37.713Z,966.04
2018-07-01T00:52:37.757Z,966.03
2018-07-01T00:53:37.723Z,966.03
2018-07-01T00:54:37.739Z,966.03
2018-07-01T00:55:37.715Z,966.02
2018-07-01T00:56:37.726Z,966.03
2018-07-01T00:57:37.697Z,966.03
2018-07-01T00:58:37.733Z,966.02
2018-07-01T00:59:37.730Z,965.96
2018-07-01T01:00:37.716Z,966.00
2018-07-01T01:01:37.736Z,965.94
2018-07-01T01:02:37.684Z,965.97
2018-07-01T01:03:37.703Z,965.94
2018-07-01T01:04:37.756Z,965.97
2018-07-01T01:05:37.759Z,966.01
2018-07-01T01:06:37.752Z,965.99
2018-07-01T01:07:37.792Z,965.98
2018-07-01T01:08:37.706Z,966.01
2018-07-01T01:09:37.689Z,965.96
2018-07-01T01:10:37.724Z,965.96
2018-07-01T01:11:38.427Z,965.98
2018-07-01T01:12:37.767Z,965.97
2018-07-01T01:13:37.660Z,965.98
2018-07-01T01:14:37.727Z,965.95
2018-07-01T01:15:37.773Z,965.91
2018-07-01T01:16:37.724Z,965.93
2018-07-01T01:17:37.678Z,965.92
2018-07-01T01:18:37.762Z,965.92
2018-07-01T01:19:37.692Z,965.92
2018-07-01T01:20:37.686Z,965.96
2018-07-01T01:21:37.706Z,965.96
2018-07-01T01:22:37.719Z,965.96
2018-07-01T01:23:37.670Z,965.93
2018-07-01T01:24:37.728Z,965.96
2018-07-01T01:25:37.728Z,965.95
2018-07-01T01:26:37.662Z,965.92
2018-07-01T01:27:37.748Z,965.90
2018-07-01T01:28:37.705Z,965.93
2018-07-01T01:29:37.720Z,965.91
2018-07-01T01:30:37.693Z,965.91
2018-07-01T01:31:37.746Z,965.87
2018-07-01T01:32:38.378Z,965.89
2018-07-01T01:33:37.667Z,965.90
2018-07-01T01:34:37.674Z,965.90
2018-07-01T01:35:37.737Z,965.88
2018-07-01T01:36:37.894Z,965.94
2018-07-01T01:37:37.677Z,965.89
2018-07-01T01:38:37.716Z,965.88
2018-07-01T01:39:37.709Z,965.86
2018-07-01T01:40:37.708Z,965.89
2018-07-01T01:41:37.772Z,965.84
2018-07-01T01:42:37.681Z,965.84
2018-07-01T01:43:37.712Z,965.85
2018-07-01T01:44:37.667Z,965.85
2018-07-01T01:45:37.636Z,965.83
2018-07-01T01:46:37.674Z,965.87
2018-07-01T01:47:37.686Z,965.82
2018-07-01T01:48:37.750Z,965.83
2018-07-01T01:49:39.339Z,965.85
2018-07-01T01:50:37.787Z,965.81
2018-07-01T01:51:37.665Z,965.83
2018-07-01T01:52:37.612Z,965.81
2018-07-01T01:53:37.769Z,965.83
2018-07-01T01:54:37.663Z,965.84
2018-07-01T01:55:37.795Z,965.83
2018-07-01T01:56:37.619Z,965.81
2018-07-01T01:57:37.607Z,965.80
2018-07-01T01:58:38.376Z,965.82
2018-07-01T01:59:37.712Z,965.81
2018-07-01T02:00:37.611Z,965.82
2018-07-01T02:01:37.665Z,965.82
2018-07-01T02:02:37.623Z,965.82
2018-07-01T02:03:37.619Z,965.82
2018-07-01T02:04:46.838Z,965.78
2018-07-01T02:06:44.366Z,965.75
2018-07-01T02:09:33.604Z,965.75
2018-07-01T02:10:28.912Z,965.76
2018-07-01T02:11:29.921Z,965.75
2018-07-01T02:12:28.812Z,965.77
2018-07-01T02:13:29.394Z,965.78
2018-07-01T02:14:28.746Z,965.76
2018-07-01T02:15:28.856Z,965.79
2018-07-01T02:16:28.884Z,965.80
2018-07-01T02:17:28.907Z,965.83
2018-07-01T02:18:28.559Z,965.83
2018-07-01T02:19:28.626Z,965.80
2018-07-01T02:20:28.522Z,965.82
2018-07-01T02:21:28.574Z,965.84
2018-07-01T02:22:28.724Z,965.82
2018-07-01T02:23:30.431Z,965.81
2018-07-01T02:24:28.586Z,965.83
2018-07-01T02:25:28.461Z,965.80
2018-07-01T02:26:28.573Z,965.79
2018-07-01T02:27:28.500Z,965.83
2018-07-01T02:28:28.531Z,965.84
2018-07-01T02:29:28.627Z,965.82
2018-07-01T02:30:29.516Z,965.85
2018-07-01T02:31:28.474Z,965.89
2018-07-01T02:32:29.337Z,965.88
2018-07-01T02:33:28.458Z,965.89
2018-07-01T02:34:28.534Z,965.89
2018-07-01T02:35:28.563Z,965.87
2018-07-01T02:36:28.559Z,965.91
2018-07-01T02:37:28.698Z,965.87
2018-07-01T02:38:28.668Z,965.91
2018-07-01T02:39:29.413Z,965.87
2018-07-01T02:40:42.217Z,965.89
2018-07-01T02:42:22.235Z,965.90
2018-07-01T02:43:23.222Z,965.89
2018-07-01T02:44:22.188Z,965.90
2018-07-01T02:45:22.456Z,965.87
2018-07-01T02:46:21.945Z,965.92
2018-07-01T02:47:22.077Z,965.89
2018-07-01T02:48:21.921Z,965.89
2018-07-01T02:49:22.017Z,965.88
2018-07-01T02:50:22.125Z,965.95
2018-07-01T02:51:21.942Z,965.97
2018-07-01T02:52:21.836Z,965.98
2018-07-01T02:53:21.873Z,965.97
2018-07-01T02:54:26.507Z,965.99
2018-07-01T02:55:21.843Z,965.99
2018-07-01T02:56:24.027Z,966.01
2018-07-01T02:57:21.862Z,965.99
2018-07-01T02:58:21.943Z,966.00
2018-07-01T02:59:22.007Z,966.01
2018-07-01T03:00:30.939Z,966.04
2018-07-01T03:02:35.086Z,966.01
2018-07-01T03:03:16.700Z,966.03
2018-07-01T03:04:16.650Z,966.00
2018-07-01T03:05:16.688Z,966.02
2018-07-01T03:06:18.089Z,966.02
2018-07-01T03:07:17.521Z,966.07
2018-07-01T03:08:16.611Z,966.07
2018-07-01T03:09:16.665Z,966.01
2018-07-01T03:10:16.659Z,966.02
2018-07-01T03:11:16.678Z,966.05
2018-07-01T03:12:16.288Z,966.03
2018-07-01T03:13:16.344Z,966.04
2018-07-01T03:14:16.524Z,966.06
2018-07-01T03:15:16.382Z,966.06
2018-07-01T03:16:18.409Z,966.02
2018-07-01T03:17:16.729Z,966.04
2018-07-01T03:18:17.427Z,966.00
2018-07-01T03:19:16.559Z,966.02
2018-07-01T03:20:16.629Z,965.97
2018-07-01T03:21:16.403Z,965.98
2018-07-01T03:22:16.343Z,965.97
2018-07-01T03:23:58.396Z,965.96
2018-07-01T03:25:15.588Z,965.97
2018-07-01T03:27:51.067Z,965.98
2018-07-01T03:28:43.147Z,965.99
2018-07-01T03:29:43.547Z,966.00
2018-07-01T03:30:41.879Z,965.99
2018-07-01T03:31:41.236Z,965.97
2018-07-01T03:32:41.281Z,966.01
2018-07-01T03:33:43.105Z,965.97
2018-07-01T03:34:41.260Z,965.99
2018-07-01T03:35:41.190Z,965.98
2018-07-01T03:36:41.242Z,965.99
2018-07-01T03:37:41.145Z,966.00
2018-07-01T03:38:41.045Z,965.96
2018-07-01T03:39:42.975Z,966.04
2018-07-01T03:40:41.026Z,966.02
2018-07-01T03:41:41.102Z,966.03
2018-07-01T03:42:42.902Z,966.03
2018-07-01T03:43:42.852Z,966.00
2018-07-01T03:44:40.995Z,966.03
2018-07-01T03:45:41.049Z,966.02
2018-07-01T03:46:41.168Z,966.04
2018-07-01T03:47:41.194Z,966.02
2018-07-01T03:48:44.775Z,966.07
2018-07-01T03:49:42.822Z,966.09
2018-07-01T03:50:42.786Z,966.09
2018-07-01T03:51:40.997Z,966.07
2018-07-01T03:52:41.190Z,966.13
2018-07-01T03:53:41.109Z,966.08
2018-07-01T03:54:40.960Z,966.13
2018-07-01T03:55:41.074Z,966.12
2018-07-01T03:56:42.786Z,966.16
2018-07-01T03:57:40.993Z,966.15
2018-07-01T03:58:41.141Z,966.12
2018-07-01T03:59:40.944Z,966.15
2018-07-01T04:00:43.830Z,966.10
2018-07-01T04:01:40.952Z,966.13
2018-07-01T04:02:42.758Z,966.13
2018-07-01T04:03:42.771Z,966.12
2018-07-01T04:04:40.882Z,966.15
2018-07-01T04:05:41.034Z,966.16
2018-07-01T04:06:43.734Z,966.17
2018-07-01T04:07:40.920Z,966.19
2018-07-01T04:08:40.939Z,966.15
2018-07-01T04:09:40.974Z,966.16
2018-07-01T04:10:40.983Z,966.13
2018-07-01T04:11:40.917Z,966.15
2018-07-01T04:12:40.901Z,966.11
2018-07-01T04:13:42.846Z,966.15
2018-07-01T04:14:42.863Z,966.16
2018-07-01T04:15:42.778Z,966.18
2018-07-01T04:16:40.916Z,966.19
2018-07-01T04:17:40.979Z,966.17
2018-07-01T04:18:40.971Z,966.21
2018-07-01T04:19:42.813Z,966.24
2018-07-01T04:20:42.786Z,966.22
2018-07-01T04:21:40.873Z,966.24
2018-07-01T04:22:40.927Z,966.26
2018-07-01T04:23:40.896Z,966.22
2018-07-01T04:24:40.923Z,966.24
2018-07-01T04:25:42.720Z,966.28
2018-07-01T04:26:40.853Z,966.25
2018-07-01T04:27:40.934Z,966.26
2018-07-01T04:28:42.762Z,966.28
2018-07-01T04:29:40.925Z,966.28
2018-07-01T04:30:40.878Z,966.26
2018-07-01T04:31:40.884Z,966.27
2018-07-01T04:32:40.841Z,966.28
2018-07-01T04:33:40.992Z,966.30
2018-07-01T04:34:40.821Z,966.31
2018-07-01T04:35:42.794Z,966.30
2018-07-01T04:36:40.769Z,966.31
2018-07-01T04:37:40.808Z,966.32
2018-07-01T04:38:42.738Z,966.32
2018-07-01T04:39:40.911Z,966.34
2018-07-01T04:40:40.839Z,966.32
2018-07-01T04:41:42.746Z,966.36
2018-07-01T04:42:40.843Z,966.35
2018-07-01T04:43:40.802Z,966.34
2018-07-01T04:44:40.891Z,966.35
2018-07-01T04:45:40.884Z,966.37
2018-07-01T04:46:41.016Z,966.43
2018-07-01T04:47:40.914Z,966.41
2018-07-01T04:48:40.864Z,966.49
2018-07-01T04:49:40.879Z,966.47
2018-07-01T04:50:42.783Z,966.46
2018-07-01T04:51:42.898Z,966.47
2018-07-01T04:52:42.964Z,966.51
2018-07-01T04:53:40.844Z,966.50
2018-07-01T04:54:40.782Z,966.45
2018-07-01T04:55:44.711Z,966.47
2018-07-01T04:56:40.906Z,966.48
2018-07-01T04:57:40.768Z,966.46
2018-07-01T04:58:40.754Z,966.48
2018-07-01T04:59:40.767Z,966.48
2018-07-01T05:00:40.726Z,966.52
2018-07-01T05:01:40.731Z,966.48
2018-07-01T05:02:40.849Z,966.50
2018-07-01T05:03:42.659Z,966.50
2018-07-01T05:04:40.733Z,966.53
2018-07-01T05:05:40.736Z,966.52
2018-07-01T05:06:40.760Z,966.51
2018-07-01T05:07:40.729Z,966.49
2018-07-01T05:08:40.764Z,966.47
2018-07-01T05:09:40.726Z,966.47
2018-07-01T05:10:40.751Z,966.45
2018-07-01T05:11:40.721Z,966.50
2018-07-01T05:12:40.747Z,966.47
2018-07-01T05:13:40.860Z,966.50
2018-07-01T05:14:40.805Z,966.45
2018-07-01T05:15:40.724Z,966.45
2018-07-01T05:16:40.723Z,966.50
2018-07-01T05:17:40.723Z,966.49
2018-07-01T05:18:40.738Z,966.49
2018-07-01T05:19:40.748Z,966.51
2018-07-01T05:20:40.722Z,966.51
2018-07-01T05:21:40.744Z,966.50
2018-07-01T05:22:40.719Z,966.51
2018-07-01T05:23:40.757Z,966.52
2018-07-01T05:24:40.729Z,966.51
2018-07-01T05:27:22.508Z,966.54
2018-07-01T05:28:23.009Z,966.57
2018-07-01T05:30:15.529Z,966.51
2018-07-01T05:31:14.944Z,966.54
2018-07-01T05:33:09.338Z,966.50
2018-07-01T05:34:07.851Z,966.51
2018-07-01T05:36:02.703Z,966.51
2018-07-01T05:37:03.261Z,966.52
2018-07-01T05:38:56.069Z,966.55
2018-07-01T05:39:55.091Z,966.53
2018-07-01T05:41:48.971Z,966.61
2018-07-01T05:42:48.895Z,966.60
2018-07-01T05:44:42.294Z,966.66
2018-07-01T05:45:41.928Z,966.62
2018-07-01T05:47:36.247Z,966.59
2018-07-01T05:48:35.756Z,966.64
2018-07-01T05:50:28.183Z,966.61
2018-07-01T05:51:29.132Z,966.59
2018-07-01T05:53:21.595Z,966.61
2018-07-01T05:54:21.031Z,966.61
2018-07-01T05:55:22.007Z,966.61
2018-07-01T05:56:22.532Z,966.59
2018-07-01T05:57:22.051Z,966.63
2018-07-01T05:58:21.035Z,966.64
2018-07-01T05:59:22.103Z,966.63
2018-07-01T06:00:22.648Z,966.64
2018-07-01T06:01:21.052Z,966.65
2018-07-01T06:02:21.064Z,966.66
2018-07-01T06:03:22.020Z,966.67
2018-07-01T06:04:21.033Z,966.66
2018-07-01T06:05:21.588Z,966.68
2018-07-01T06:06:20.651Z,966.66
2018-07-01T06:07:20.570Z,966.68
2018-07-01T06:08:20.586Z,966.63
2018-07-01T06:09:20.565Z,966.63
2018-07-01T06:10:20.592Z,966.65
2018-07-01T06:11:20.608Z,966.60
2018-07-01T06:12:20.574Z,966.61
2018-07-01T06:13:20.603Z,966.61
2018-07-01T06:14:20.614Z,966.63
2018-07-01T06:15:20.618Z,966.60
2018-07-01T06:16:20.686Z,966.60
2018-07-01T06:17:20.606Z,966.64
2018-07-01T06:18:20.630Z,966.62
2018-07-01T06:19:20.629Z,966.66
2018-07-01T06:20:20.641Z,966.69
2018-07-01T06:21:20.644Z,966.64
2018-07-01T06:22:20.625Z,966.68
2018-07-01T06:23:20.637Z,966.70
2018-07-01T06:24:20.642Z,966.67
2018-07-01T06:25:20.617Z,966.66
2018-07-01T06:26:20.627Z,966.64
2018-07-01T06:27:20.661Z,966.64
2018-07-01T06:28:20.638Z,966.64
2018-07-01T06:29:20.640Z,966.66
2018-07-01T06:30:20.618Z,966.60
2018-07-01T06:31:20.670Z,966.63
2018-07-01T06:32:20.682Z,966.67
2018-07-01T06:33:20.672Z,966.64
2018-07-01T06:34:20.681Z,966.62
2018-07-01T06:35:20.741Z,966.71
2018-07-01T06:36:20.650Z,966.71
2018-07-01T06:37:20.653Z,966.68
2018-07-01T06:38:20.666Z,966.73
2018-07-01T06:39:22.627Z,966.76
2018-07-01T06:40:20.743Z,966.72
2018-07-01T06:41:20.684Z,966.73
2018-07-01T06:42:20.639Z,966.80
2018-07-01T06:43:20.682Z,966.76
2018-07-01T06:44:20.665Z,966.69
2018-07-01T06:45:20.676Z,966.73
2018-07-01T06:46:20.680Z,966.76
2018-07-01T06:47:20.853Z,966.68
2018-07-01T06:48:20.694Z,966.73
2018-07-01T06:49:20.736Z,966.77
2018-07-01T06:50:20.700Z,966.75
2018-07-01T06:51:20.714Z,966.77
2018-07-01T06:52:20.719Z,966.77
2018-07-01T06:53:20.756Z,966.80
2018-07-01T06:54:22.738Z,966.82
2018-07-01T06:55:20.743Z,966.76
2018-07-01T06:56:23.785Z,966.77
2018-07-01T06:57:20.784Z,966.80
2018-07-01T06:58:20.820Z,966.83
2018-07-01T06:59:20.759Z,966.84
2018-07-01T07:00:20.808Z,966.82
2018-07-01T07:01:20.826Z,966.78
2018-07-01T07:02:20.839Z,966.90
2018-07-01T07:03:23.702Z,966.84
2018-07-01T07:04:20.826Z,966.89
2018-07-01T07:05:20.799Z,966.90
2018-07-01T07:06:20.851Z,966.95
2018-07-01T07:07:20.799Z,966.93
2018-07-01T07:08:20.815Z,966.93
2018-07-01T07:09:20.847Z,966.96
2018-07-01T07:10:20.884Z,966.97
2018-07-01T07:11:20.849Z,967.00
2018-07-01T07:12:20.855Z,967.01
2018-07-01T07:13:20.901Z,967.03
2018-07-01T07:14:20.882Z,966.99
2018-07-01T07:15:21.023Z,966.92
2018-07-01T07:16:22.802Z,966.95
2018-07-01T07:17:21.098Z,966.96
2018-07-01T07:18:21.021Z,966.95
2018-07-01T07:19:20.985Z,966.92
2018-07-01T07:20:21.107Z,966.94
2018-07-01T07:21:21.172Z,966.94
2018-07-01T07:22:21.008Z,966.94
2018-07-01T07:23:22.284Z,966.95
2018-07-01T07:24:21.158Z,966.87
2018-07-01T07:25:21.036Z,966.93
2018-07-01T07:26:21.048Z,966.89
2018-07-01T07:27:21.030Z,966.91
2018-07-01T07:28:20.996Z,966.92
2018-07-01T07:29:21.072Z,966.90
2018-07-01T07:30:20.964Z,966.90
2018-07-01T07:31:21.029Z,966.85
2018-07-01T07:32:20.964Z,966.85
2018-07-01T07:33:20.960Z,966.83
2018-07-01T07:34:21.100Z,966.81
2018-07-01T07:35:20.996Z,966.84
2018-07-01T07:36:21.004Z,966.86
2018-07-01T07:37:21.044Z,966.87
2018-07-01T07:38:21.146Z,966.86
2018-07-01T07:39:21.163Z,966.89
2018-07-01T07:40:21.350Z,966.90
2018-07-01T07:41:21.157Z,966.94
2018-07-01T07:42:21.122Z,966.93
2018-07-01T07:43:21.050Z,966.89
2018-07-01T07:44:21.079Z,966.83
2018-07-01T07:45:21.236Z,966.87
2018-07-01T07:46:21.405Z,966.89
2018-07-01T07:47:22.798Z,966.81
2018-07-01T07:48:21.288Z,966.86
2018-07-01T07:49:22.890Z,966.86
2018-07-01T07:50:23.370Z,966.86
2018-07-01T07:51:22.224Z,966.91
2018-07-01T07:52:22.785Z,966.88
2018-07-01T07:53:21.360Z,966.92
2018-07-01T07:54:21.216Z,966.92
2018-07-01T07:55:21.184Z,966.89
2018-07-01T07:56:22.678Z,966.93
2018-07-01T07:59:38.608Z,966.86
2018-07-01T08:00:23.133Z,966.88
2018-07-01T08:02:18.276Z,966.91
2018-07-01T08:03:17.644Z,966.92
2018-07-01T08:05:10.066Z,966.88
2018-07-01T08:06:11.602Z,966.90
2018-07-01T08:07:10.673Z,966.87
2018-07-01T08:08:10.664Z,966.89
2018-07-01T08:09:11.559Z,966.88
2018-07-01T08:10:11.077Z,966.88
2018-07-01T08:11:11.942Z,966.79
2018-07-01T08:12:10.310Z,966.87
2018-07-01T08:13:10.155Z,966.86
2018-07-01T08:14:10.099Z,966.91
2018-07-01T08:15:09.862Z,966.92
2018-07-01T08:16:09.808Z,966.87
2018-07-01T08:17:09.838Z,966.89
2018-07-01T08:18:16.108Z,966.85
2018-07-01T08:19:12.805Z,966.86
2018-07-01T08:20:21.185Z,966.82
2018-07-01T08:22:30.204Z,966.82
2018-07-01T08:23:19.605Z,966.81
2018-07-01T08:25:17.529Z,966.83
2018-07-01T08:26:17.191Z,966.84
2018-07-01T08:27:14.369Z,966.84
2018-07-01T08:28:17.128Z,966.88
2018-07-01T08:29:16.564Z,966.92
2018-07-01T08:30:14.916Z,966.88
2018-07-01T08:31:14.341Z,966.87
2018-07-01T08:32:14.312Z,966.87
2018-07-01T08:33:13.909Z,966.92
2018-07-01T08:34:14.842Z,966.90
2018-07-01T08:35:21.119Z,966.89
2018-07-01T08:36:24.596Z,966.90
2018-07-01T08:38:09.274Z,966.89
2018-07-01T08:39:07.507Z,966.91
2018-07-01T08:40:07.989Z,966.88
2018-07-01T08:41:07.498Z,966.89
2018-07-01T08:42:07.455Z,966.81
2018-07-01T08:43:07.878Z,966.85
2018-07-01T08:44:07.244Z,966.81
2018-07-01T08:45:07.147Z,966.84
2018-07-01T08:46:07.964Z,966.80
2018-07-01T08:47:07.270Z,966.82
2018-07-01T08:48:07.291Z,966.76
2018-07-01T08:49:07.171Z,966.83
2018-07-01T08:50:07.405Z,966.96
2018-07-01T08:51:07.290Z,966.84
2018-07-01T08:52:07.279Z,966.78
2018-07-01T08:53:07.335Z,966.79
2018-07-01T08:54:07.449Z,966.78
2018-07-01T08:55:07.405Z,966.74
2018-07-01T08:56:07.318Z,966.72
2018-07-01T08:57:07.287Z,966.75
2018-07-01T08:58:07.283Z,966.71
2018-07-01T08:59:07.411Z,966.72
2018-07-01T09:00:07.487Z,966.75
2018-07-01T09:01:07.405Z,966.74
2018-07-01T09:02:07.294Z,966.68
2018-07-01T09:03:07.433Z,966.78
2018-07-01T09:04:07.390Z,966.80
2018-07-01T09:05:07.434Z,966.74
2018-07-01T09:06:07.352Z,966.64
2018-07-01T09:07:07.444Z,966.68
2018-07-01T09:08:07.469Z,966.69
2018-07-01T09:09:07.521Z,966.69
2018-07-01T09:10:07.428Z,966.71
2018-07-01T09:11:07.522Z,966.69
2018-07-01T09:12:07.596Z,966.71
2018-07-01T09:13:07.554Z,966.59
2018-07-01T09:14:07.526Z,966.57
2018-07-01T09:15:07.665Z,966.59
2018-07-01T09:16:07.467Z,966.61
2018-07-01T09:17:07.510Z,966.60
2018-07-01T09:18:07.433Z,966.52
2018-07-01T09:19:07.475Z,966.58
2018-07-01T09:20:07.451Z,966.60
2018-07-01T09:21:08.472Z,966.64
2018-07-01T09:22:07.463Z,966.67
2018-07-01T09:23:07.504Z,966.69
2018-07-01T09:24:07.548Z,966.67
2018-07-01T09:25:07.531Z,966.74
2018-07-01T09:26:07.585Z,966.70
2018-07-01T09:27:07.555Z,966.70
2018-07-01T09:28:07.596Z,966.62
2018-07-01T09:29:07.535Z,966.66
2018-07-01T09:30:07.534Z,966.65
2018-07-01T09:31:07.619Z,966.60
2018-07-01T09:32:07.648Z,966.62
2018-07-01T09:33:07.615Z,966.63
2018-07-01T09:34:07.546Z,966.66
2018-07-01T09:35:07.567Z,966.67
2018-07-01T09:36:07.616Z,966.62
2018-07-01T09:37:07.574Z,966.61
2018-07-01T09:38:07.585Z,966.60
2018-07-01T09:39:07.594Z,966.65
2018-07-01T09:40:07.571Z,966.71
2018-07-01T09:41:07.585Z,966.70
2018-07-01T09:42:07.590Z,966.68
2018-07-01T09:43:07.593Z,966.74
2018-07-01T09:44:07.686Z,966.70
2018-07-01T09:45:07.765Z,966.72
2018-07-01T09:46:07.646Z,966.73
2018-07-01T09:47:07.639Z,966.69
2018-07-01T09:48:07.668Z,966.72
2018-07-01T09:49:07.664Z,966.72
2018-07-01T09:50:07.708Z,966.77
2018-07-01T09:51:07.738Z,966.74
2018-07-01T09:52:07.660Z,966.80
2018-07-01T09:53:07.780Z,966.79
2018-07-01T09:54:07.711Z,966.77
2018-07-01T09:55:07.679Z,966.77
2018-07-01T09:56:07.692Z,966.82
2018-07-01T09:57:07.712Z,966.81
2018-07-01T09:58:07.719Z,966.76
2018-07-01T09:59:07.678Z,966.76
2018-07-01T10:00:07.720Z,966.69
2018-07-01T10:01:07.859Z,966.79
2018-07-01T10:02:07.728Z,966.64
2018-07-01T10:03:07.720Z,966.77
2018-07-01T10:04:07.720Z,966.87
2018-07-01T10:05:07.732Z,966.75
2018-07-01T10:06:07.741Z,966.73
2018-07-01T10:07:07.777Z,966.81
2018-07-01T10:08:07.749Z,966.76
2018-07-01T10:09:07.757Z,966.69
2018-07-01T10:10:07.758Z,966.71
2018-07-01T10:11:08.613Z,966.72
2018-07-01T10:12:07.773Z,966.69
2018-07-01T10:13:07.789Z,966.77
2018-07-01T10:14:07.797Z,966.75
2018-07-01T10:15:07.767Z,966.72
2018-07-01T10:16:07.842Z,966.68
2018-07-01T10:17:07.891Z,966.71
2018-07-01T10:18:07.835Z,966.76
2018-07-01T10:19:07.880Z,966.77
2018-07-01T10:20:07.786Z,966.77
2018-07-01T10:21:08.580Z,966.76
2018-07-01T10:22:08.156Z,966.75
2018-07-01T10:23:07.859Z,966.77
2018-07-01T10:24:09.525Z,966.78
2018-07-01T10:25:07.812Z,966.75
2018-07-01T10:26:07.879Z,966.69
2018-07-01T10:27:07.939Z,966.72
2018-07-01T10:28:07.860Z,966.68
2018-07-01T10:29:07.835Z,966.66
2018-07-01T10:30:07.862Z,966.57
2018-07-01T10:31:08.439Z,966.66
2018-07-01T10:32:07.962Z,966.69
2018-07-01T10:33:07.858Z,966.69
2018-07-01T10:34:07.923Z,966.63
2018-07-01T10:35:08.473Z,966.70
2018-07-01T10:36:07.879Z,966.68
2018-07-01T10:37:08.457Z,966.68
2018-07-01T10:38:07.941Z,966.70
2018-07-01T10:39:07.918Z,966.68
2018-07-01T10:40:07.961Z,966.58
2018-07-01T10:41:07.987Z,966.69
2018-07-01T10:42:07.919Z,966.71
2018-07-01T10:43:07.914Z,966.66
2018-07-01T10:44:07.950Z,966.64
2018-07-01T10:45:07.928Z,966.64
2018-07-01T10:46:07.981Z,966.70
2018-07-01T10:47:07.970Z,966.69
2018-07-01T10:48:07.980Z,966.69
2018-07-01T10:49:07.961Z,966.69
2018-07-01T10:50:07.981Z,966.62
2018-07-01T10:51:08.001Z,966.61
2018-07-01T10:52:07.966Z,966.58
2018-07-01T10:53:07.975Z,966.58
2018-07-01T10:54:07.997Z,966.67
2018-07-01T10:55:08.010Z,966.63
2018-07-01T10:56:08.027Z,966.60
2018-07-01T10:57:08.448Z,966.68
2018-07-01T10:58:08.038Z,966.67
2018-07-01T10:59:08.112Z,966.63
2018-07-01T11:00:08.064Z,966.58
2018-07-01T11:01:08.053Z,966.56
2018-07-01T11:02:08.050Z,966.54
2018-07-01T11:03:08.040Z,966.59
2018-07-01T11:04:08.077Z,966.59
2018-07-01T11:05:08.073Z,966.59
2018-07-01T11:06:08.127Z,966.57
2018-07-01T11:07:08.083Z,966.52
2018-07-01T11:08:08.103Z,966.60
2018-07-01T11:09:08.099Z,966.53
2018-07-01T11:10:09.005Z,966.54
2018-07-01T11:11:08.100Z,966.53
2018-07-01T11:12:08.098Z,966.50
2018-07-01T11:13:08.149Z,966.52
2018-07-01T11:14:08.181Z,966.56
2018-07-01T11:15:08.149Z,966.56
2018-07-01T11:16:08.158Z,966.50
2018-07-01T11:17:08.181Z,966.45
2018-07-01T11:18:08.174Z,966.50
2018-07-01T11:19:08.165Z,966.50
2018-07-01T11:20:08.155Z,966.48
2018-07-01T11:21:08.209Z,966.51
2018-07-01T11:22:08.266Z,966.49
2018-07-01T11:23:08.183Z,966.54
2018-07-01T11:24:08.192Z,966.50
2018-07-01T11:25:08.199Z,966.43
2018-07-01T11:26:08.195Z,966.49
2018-07-01T11:27:08.482Z,966.44
2018-07-01T11:28:08.184Z,966.44
2018-07-01T11:29:08.225Z,966.55
2018-07-01T11:30:08.210Z,966.52
2018-07-01T11:31:08.214Z,966.50
2018-07-01T11:32:08.210Z,966.44
2018-07-01T11:33:08.248Z,966.44
2018-07-01T11:34:11.081Z,966.49
2018-07-01T11:35:08.296Z,966.44
2018-07-01T11:36:08.243Z,966.40
2018-07-01T11:37:08.270Z,966.46
2018-07-01T11:38:08.310Z,966.48
2018-07-01T11:39:08.276Z,966.42
2018-07-01T11:40:08.270Z,966.43
2018-07-01T11:41:08.297Z,966.45
2018-07-01T11:42:08.366Z,966.40
2018-07-01T11:43:08.326Z,966.43
2018-07-01T11:44:08.323Z,966.38
2018-07-01T11:45:08.291Z,966.41
2018-07-01T11:46:08.325Z,966.39
2018-07-01T11:47:08.303Z,966.43
2018-07-01T11:48:08.333Z,966.49
2018-07-01T11:49:08.368Z,966.48
2018-07-01T11:50:08.316Z,966.46
2018-07-01T11:51:08.358Z,966.44
2018-07-01T11:52:08.371Z,966.41
2018-07-01T11:53:08.331Z,966.36
2018-07-01T11:54:09.948Z,966.38
2018-07-01T11:55:08.382Z,966.36
2018-07-01T11:56:08.360Z,966.35
2018-07-01T11:57:08.394Z,966.35
2018-07-01T11:58:08.383Z,966.34
2018-07-01T11:59:08.378Z,966.40
2018-07-01T12:00:08.446Z,966.39
2018-07-01T12:01:08.505Z,966.44
2018-07-01T12:02:08.443Z,966.38
2018-07-01T12:03:08.415Z,966.37
2018-07-01T12:04:08.434Z,966.31
2018-07-01T12:05:16.665Z,966.27
2018-07-01T12:06:08.450Z,966.31
2018-07-01T12:07:08.469Z,966.32
2018-07-01T12:08:08.465Z,966.30
2018-07-01T12:09:08.436Z,966.32
2018-07-01T12:10:08.487Z,966.35
2018-07-01T12:11:16.009Z,966.30
2018-07-01T12:13:02.802Z,966.35
2018-07-01T12:14:02.826Z,966.42
2018-07-01T12:15:03.338Z,966.34
2018-07-01T12:16:03.788Z,966.33
2018-07-01T12:17:02.835Z,966.28
2018-07-01T12:18:03.371Z,966.27
2018-07-01T12:19:02.704Z,966.27
2018-07-01T12:20:03.344Z,966.24
2018-07-01T12:21:03.371Z,966.21
2018-07-01T12:22:02.612Z,966.21
2018-07-01T12:23:02.418Z,966.20
2018-07-01T12:24:02.423Z,966.27
2018-07-01T12:25:02.438Z,966.32
2018-07-01T12:26:02.438Z,966.23
2018-07-01T12:27:02.478Z,966.22
2018-07-01T12:28:02.440Z,966.20
2018-07-01T12:29:02.429Z,966.13
2018-07-01T12:30:02.427Z,966.13
2018-07-01T12:31:02.447Z,966.14
2018-07-01T12:32:02.503Z,966.18
2018-07-01T12:33:02.474Z,966.19
2018-07-01T12:34:02.464Z,966.16
2018-07-01T12:35:02.483Z,966.14
2018-07-01T12:36:02.489Z,966.16
2018-07-01T12:37:02.483Z,966.02
2018-07-01T12:38:02.475Z,966.13
2018-07-01T12:39:02.508Z,966.14
2018-07-01T12:40:02.554Z,966.15
2018-07-01T12:41:02.551Z,966.13
2018-07-01T12:42:02.572Z,966.11
2018-07-01T12:43:02.563Z,966.08
2018-07-01T12:44:02.544Z,966.09
2018-07-01T12:45:02.526Z,965.91
2018-07-01T12:46:02.529Z,966.14
2018-07-01T12:47:02.609Z,966.17
2018-07-01T12:48:02.599Z,966.18
2018-07-01T12:49:02.618Z,966.18
2018-07-01T12:50:02.586Z,966.09
2018-07-01T12:51:02.562Z,966.11
2018-07-01T12:52:02.565Z,966.07
2018-07-01T12:53:02.596Z,966.09